Time;durP1;ratioP1;P1;durP2;ratioP2;P2;SDS_P1;SDS_P2;PMS_P1;PMS_P2;Temp;Humidity;BMP_temperature;BMP_pressure;BME280_temperature;BME280_humidity;BME280_pressure;Samples;Min_cycle;Max_cycle;Signal;HPM_P1;HPM_P2
2021/10/09 00:01:30;;;;;;;11.23;2.45;;;17.40;86.30;;;;;;5040080;28;20392;-76
2021/10/09 00:03:56;;;;;;;6.18;2.65;;;17.40;86.30;;;;;;5040446;28;20037;-77
2021/10/09 00:06:22;;;;;;;6.13;1.90;;;17.40;86.30;;;;;;5038125;28;20112;-76
2021/10/09 00:08:49;;;;;;;9.13;3.40;;;17.40;86.30;;;;;;5038372;28;20021;-76
2021/10/09 00:11:33;;;;;;;7.38;1.70;;;17.40;86.20;;;;;;5040260;28;20438;-75
2021/10/09 00:14:00;;;;;;;5.28;2.25;;;17.40;86.00;;;;;;5045873;28;20037;-76
2021/10/09 00:16:26;;;;;;;8.57;1.80;;;17.40;85.70;;;;;;5037512;28;20033;-76
2021/10/09 00:18:53;;;;;;;4.38;1.63;;;17.40;85.60;;;;;;5041298;28;20095;-77
2021/10/09 00:21:19;;;;;;;3.60;1.15;;;17.30;85.50;;;;;;5039641;28;20021;-76
2021/10/09 00:23:54;;;;;;;9.05;1.88;;;17.30;85.40;;;;;;5036504;28;20516;-77
2021/10/09 00:26:21;;;;;;;8.90;1.98;;;17.30;85.50;;;;;;5052502;28;20041;-77
2021/10/09 00:28:48;;;;;;;9.30;1.85;;;17.30;85.60;;;;;;5039652;28;20047;-77
2021/10/09 00:31:14;;;;;;;6.25;1.88;;;17.30;85.70;;;;;;5039704;28;20037;-76
2021/10/09 00:33:41;;;;;;;6.63;1.05;;;17.30;85.70;;;;;;5046287;28;20464;-76
2021/10/09 00:36:07;;;;;;;7.00;1.33;;;17.30;85.50;;;;;;5046197;28;20480;-77
2021/10/09 00:38:34;;;;;;;4.70;1.42;;;17.30;85.40;;;;;;5047735;28;20025;-77
2021/10/09 00:41:00;;;;;;;4.25;1.52;;;17.30;85.30;;;;;;5044573;28;20005;-76
2021/10/09 00:43:27;;;;;;;6.13;1.50;;;17.30;85.30;;;;;;5046609;28;20048;-77
2021/10/09 00:45:57;;;;;;;6.32;1.98;;;17.30;85.20;;;;;;5040084;28;20043;-77
2021/10/09 00:48:26;;;;;;;6.50;2.85;;;17.30;85.10;;;;;;5040054;28;20439;-77
2021/10/09 00:50:53;;;;;;;9.45;3.10;;;17.30;84.90;;;;;;5043987;28;20044;-77
2021/10/09 00:53:22;;;;;;;9.32;1.80;;;17.40;84.60;;;;;;5043712;28;20057;-76
2021/10/09 00:55:52;;;;;;;7.70;1.55;;;17.30;84.40;;;;;;5042681;28;20040;-76
2021/10/09 00:58:20;;;;;;;3.97;1.02;;;17.30;84.50;;;;;;5045418;28;20037;-77
2021/10/09 01:00:47;;;;;;;5.28;1.60;;;17.30;84.40;;;;;;5042756;28;20022;-76
2021/10/09 01:03:13;;;;;;;6.82;1.20;;;17.40;84.40;;;;;;5044468;28;20044;-77
2021/10/09 01:05:40;;;;;;;4.60;1.42;;;17.40;84.10;;;;;;5043273;28;20037;-77
2021/10/09 01:08:07;;;;;;;5.50;1.65;;;17.30;83.70;;;;;;5043058;28;20013;-76
2021/10/09 01:10:34;;;;;;;6.88;1.40;;;17.40;83.70;;;;;;5041915;28;20488;-77
2021/10/09 01:13:04;;;;;;;4.07;1.83;;;17.40;83.60;;;;;;5044232;28;20129;-76
2021/10/09 01:15:34;;;;;;;5.93;1.60;;;17.40;83.40;;;;;;5043163;28;20079;-77
2021/10/09 01:18:11;;;;;;;6.60;1.38;;;17.40;83.70;;;;;;5046181;28;20096;-77
2021/10/09 01:20:48;;;;;;;4.10;1.10;;;17.40;83.70;;;;;;5047101;28;20032;-78
2021/10/09 01:23:14;;;;;;;6.45;1.92;;;17.40;83.80;;;;;;5041179;28;20043;-76
2021/10/09 01:25:41;;;;;;;6.15;1.73;;;17.40;83.80;;;;;;5038744;28;20032;-76
2021/10/09 01:28:08;;;;;;;3.72;0.90;;;17.40;84.00;;;;;;5045172;28;20422;-75
2021/10/09 01:30:35;;;;;;;7.95;1.92;;;17.40;84.00;;;;;;5044446;28;20020;-77
2021/10/09 01:33:02;;;;;;;5.50;1.00;;;17.40;84.00;;;;;;5040395;28;20021;-76
2021/10/09 01:35:29;;;;;;;6.82;2.15;;;17.40;83.90;;;;;;5044080;28;20112;-77
2021/10/09 01:37:55;;;;;;;2.80;1.20;;;17.40;83.70;;;;;;5041039;28;20071;-77
2021/10/09 01:40:22;;;;;;;4.03;1.00;;;17.40;83.80;;;;;;5045543;28;20039;-77
2021/10/09 01:42:49;;;;;;;11.63;1.88;;;17.40;83.70;;;;;;5038632;28;20026;-77
2021/10/09 01:45:16;;;;;;;2.65;1.05;;;17.40;83.60;;;;;;5044169;28;20025;-77
2021/10/09 01:47:51;;;;;;;6.47;1.27;;;17.40;83.50;;;;;;5040705;28;20036;-76
2021/10/09 01:50:18;;;;;;;10.65;2.50;;;17.30;83.50;;;;;;5043163;28;20067;-76
2021/10/09 01:52:48;;;;;;;11.27;2.00;;;17.30;83.60;;;;;;5045440;28;20029;-77
2021/10/09 01:55:15;;;;;;;5.32;2.25;;;17.30;83.70;;;;;;5042411;28;20596;-76
2021/10/09 01:57:41;;;;;;;5.15;1.42;;;17.30;83.80;;;;;;5040597;28;20053;-77
2021/10/09 02:00:09;;;;;;;10.52;2.05;;;17.30;83.90;;;;;;5042505;28;20021;-76
2021/10/09 02:02:35;;;;;;;8.38;1.33;;;17.30;84.20;;;;;;5057610;28;20537;-77
2021/10/09 02:05:02;;;;;;;2.85;0.95;;;17.30;84.10;;;;;;5037410;28;20029;-76
2021/10/09 02:07:30;;;;;;;6.43;1.15;;;17.40;84.10;;;;;;5042326;28;20043;-77
2021/10/09 02:09:57;;;;;;;3.97;1.38;;;17.30;84.00;;;;;;5044998;28;20036;-77
2021/10/09 02:12:25;;;;;;;4.38;0.85;;;17.30;83.80;;;;;;5039475;28;20029;-77
2021/10/09 02:15:10;;;;;;;5.18;1.15;;;17.30;83.90;;;;;;5037487;28;20013;-77
2021/10/09 02:18:00;;;;;;;6.97;1.35;;;17.30;84.50;;;;;;5046820;28;20024;-77
2021/10/09 02:26:10;;;;;;;6.40;1.40;;;17.30;83.90;;;;;;5019399;28;20032;-77
2021/10/09 02:28:36;;;;;;;7.53;1.33;;;17.20;83.90;;;;;;5044781;28;20081;-77
2021/10/09 02:31:03;;;;;;;12.65;2.35;;;17.20;83.90;;;;;;5039595;28;20021;-77
2021/10/09 02:33:29;;;;;;;8.68;2.15;;;17.10;84.00;;;;;;5042042;28;20021;-77
2021/10/09 02:35:56;;;;;;;6.57;1.85;;;17.10;84.20;;;;;;5039775;28;20107;-77
2021/10/09 02:38:22;;;;;;;5.93;1.30;;;17.10;84.50;;;;;;5045620;28;20013;-77
2021/10/09 02:40:49;;;;;;;3.28;1.10;;;17.10;84.70;;;;;;5040043;28;20485;-77
2021/10/09 02:43:15;;;;;;;4.90;1.75;;;17.10;84.70;;;;;;5043640;28;20013;-76
2021/10/09 02:45:42;;;;;;;11.73;1.58;;;17.10;85.00;;;;;;5045607;28;20060;-75
2021/10/09 02:48:10;;;;;;;26.00;13.15;;;17.10;85.00;;;;;;5041842;28;20018;-76
2021/10/09 02:50:36;;;;;;;25.25;16.38;;;17.10;85.20;;;;;;5039784;28;20025;-76
2021/10/09 02:53:04;;;;;;;13.45;5.22;;;17.10;85.20;;;;;;5039995;28;20056;-77
2021/10/09 02:55:30;;;;;;;9.35;2.38;;;17.10;85.10;;;;;;5042149;28;20025;-77
2021/10/09 02:57:57;;;;;;;7.85;1.95;;;17.10;85.10;;;;;;5043453;28;20112;-76
2021/10/09 03:00:23;;;;;;;7.35;1.63;;;17.20;85.20;;;;;;5041414;28;20155;-77
2021/10/09 03:02:50;;;;;;;7.47;3.00;;;17.20;85.20;;;;;;5041797;28;20045;-77
2021/10/09 03:05:18;;;;;;;5.45;1.90;;;17.20;85.30;;;;;;5039992;28;20017;-76
2021/10/09 03:07:44;;;;;;;3.92;1.25;;;17.20;85.40;;;;;;5044059;28;20036;-77
2021/10/09 03:10:12;;;;;;;9.18;2.15;;;17.20;85.40;;;;;;5043653;28;20021;-80
2021/10/09 03:12:39;;;;;;;57.15;38.38;;;17.20;85.40;;;;;;5037957;28;20021;-77
2021/10/09 03:15:07;;;;;;;37.10;29.00;;;17.20;85.50;;;;;;5040459;28;20020;-79
2021/10/09 03:17:33;;;;;;;27.88;19.23;;;17.30;86.10;;;;;;5037546;28;20017;-77
2021/10/09 03:20:00;;;;;;;9.57;5.95;;;17.30;86.20;;;;;;5038750;28;20032;-77
2021/10/09 03:22:26;;;;;;;5.47;1.67;;;17.30;86.30;;;;;;5044058;28;20028;-78
2021/10/09 03:24:53;;;;;;;8.25;2.45;;;17.30;86.10;;;;;;5041616;28;20119;-78
2021/10/09 03:27:19;;;;;;;10.95;1.70;;;17.30;86.20;;;;;;5043113;28;20048;-76
2021/10/09 03:29:46;;;;;;;4.85;1.73;;;17.30;86.40;;;;;;5041102;28;20036;-77
2021/10/09 03:32:12;;;;;;;4.55;1.50;;;17.30;86.70;;;;;;5041493;28;20033;-74
2021/10/09 03:34:39;;;;;;;6.03;2.35;;;17.30;86.70;;;;;;5037264;28;20049;-79
2021/10/09 03:37:07;;;;;;;5.25;1.42;;;17.20;86.50;;;;;;5038683;28;20494;-79
2021/10/09 03:39:36;;;;;;;6.15;1.63;;;17.20;86.50;;;;;;5040382;28;20075;-79
2021/10/09 03:42:10;;;;;;;4.50;1.38;;;17.20;86.70;;;;;;5036175;28;20408;-79
2021/10/09 03:44:49;;;;;;;4.50;1.80;;;17.20;86.70;;;;;;5036490;28;21059;-76
2021/10/09 03:47:26;;;;;;;8.45;2.75;;;17.20;86.70;;;;;;5036795;28;20052;-75
2021/10/09 03:49:58;;;;;;;4.43;1.00;;;17.10;86.70;;;;;;5043372;28;20025;-78
2021/10/09 03:55:01;;;;;;;;;;;17.10;87.00;;;;;;5042351;28;20025;-78
2021/10/09 03:57:27;;;;;;;5.25;1.88;;;17.10;87.10;;;;;;5044047;28;20391;-78
2021/10/09 03:59:54;;;;;;;6.30;1.83;;;17.20;87.10;;;;;;5035696;28;20091;-75
2021/10/09 04:02:20;;;;;;;4.47;1.65;;;17.10;86.80;;;;;;5039405;28;20484;-77
2021/10/09 04:04:46;;;;;;;4.22;1.70;;;17.10;86.70;;;;;;5042368;28;20036;-79
2021/10/09 04:07:13;;;;;;;6.40;2.08;;;17.10;86.60;;;;;;5044853;28;20083;-76
2021/10/09 04:09:40;;;;;;;4.85;1.50;;;17.20;86.80;;;;;;5042906;28;20024;-78
2021/10/09 04:12:07;;;;;;;7.65;1.55;;;17.10;86.70;;;;;;5047079;28;20396;-79
2021/10/09 04:14:33;;;;;;;5.03;1.65;;;17.20;86.90;;;;;;5047877;28;20476;-78
2021/10/09 04:16:59;;;;;;;17.63;13.20;;;17.20;87.20;;;;;;5041463;28;20025;-82
2021/10/09 04:19:26;;;;;;;183.68;146.13;;;17.20;87.20;;;;;;5048771;28;20064;-79
2021/10/09 04:21:52;;;;;;;42.35;27.77;;;17.10;87.10;;;;;;5037814;28;20028;-80
2021/10/09 04:24:19;;;;;;;10.48;4.10;;;17.20;87.20;;;;;;5041418;28;20451;-80
2021/10/09 04:26:46;;;;;;;6.03;2.10;;;17.20;87.20;;;;;;5044013;28;20366;-81
2021/10/09 04:29:13;;;;;;;5.75;1.77;;;17.20;87.30;;;;;;5044469;28;20024;-75
2021/10/09 04:31:39;;;;;;;9.25;1.80;;;17.10;87.40;;;;;;5047510;28;20414;-81
2021/10/09 04:34:05;;;;;;;6.47;1.17;;;17.20;87.50;;;;;;5042052;28;20117;-80
2021/10/09 04:36:32;;;;;;;16.02;3.42;;;17.20;87.80;;;;;;5043832;28;20030;-81
2021/10/09 04:38:59;;;;;;;9.18;2.78;;;17.20;87.90;;;;;;5040986;28;20025;-80
2021/10/09 04:41:25;;;;;;;6.43;2.58;;;17.20;88.10;;;;;;5045576;28;20022;-77
2021/10/09 04:43:52;;;;;;;4.65;1.45;;;17.20;88.50;;;;;;5043349;28;20021;-80
2021/10/09 04:46:18;;;;;;;2.97;1.63;;;17.20;88.70;;;;;;5040029;28;20083;-77
2021/10/09 04:48:45;;;;;;;5.47;1.52;;;17.20;89.00;;;;;;5038056;28;20021;-77
2021/10/09 04:51:11;;;;;;;9.35;2.13;;;17.20;89.40;;;;;;5040855;28;20018;-75
2021/10/09 04:53:37;;;;;;;5.93;1.45;;;17.20;89.60;;;;;;5040666;28;20017;-76
2021/10/09 04:56:04;;;;;;;10.10;2.47;;;17.20;89.60;;;;;;5043771;28;20020;-75
2021/10/09 04:58:31;;;;;;;43.33;33.50;;;17.30;89.80;;;;;;5047454;28;20033;-71
2021/10/09 05:01:07;;;;;;;22.60;14.00;;;17.30;90.00;;;;;;5043838;28;20029;-73
2021/10/09 05:03:33;;;;;;;7.28;3.35;;;17.30;90.00;;;;;;5046063;28;20124;-75
2021/10/09 05:06:00;;;;;;;3.17;1.75;;;17.30;90.40;;;;;;5041769;28;20041;-77
2021/10/09 05:08:28;;;;;;;5.60;2.58;;;17.30;90.00;;;;;;5037086;28;20017;-74
2021/10/09 05:10:54;;;;;;;5.82;2.30;;;17.40;90.10;;;;;;5038883;28;20053;-77
2021/10/09 05:13:21;;;;;;;7.03;1.70;;;17.40;90.20;;;;;;5032722;28;20037;-74
2021/10/09 05:15:47;;;;;;;3.50;1.13;;;17.40;90.30;;;;;;5039098;28;20130;-72
2021/10/09 05:18:14;;;;;;;8.02;1.80;;;17.40;90.40;;;;;;5034609;28;20031;-75
2021/10/09 05:20:41;;;;;;;2.72;1.15;;;17.40;90.30;;;;;;5036731;28;20045;-75
2021/10/09 05:23:07;;;;;;;10.27;2.17;;;17.50;90.20;;;;;;5039743;28;20101;-75
2021/10/09 05:25:36;;;;;;;5.40;1.48;;;17.50;90.20;;;;;;5040841;28;20053;-73
2021/10/09 05:28:09;;;;;;;51.75;44.30;;;17.50;90.20;;;;;;5041515;28;20025;-74
2021/10/09 05:30:36;;;;;;;35.53;29.80;;;17.50;90.20;;;;;;5037781;28;20017;-76
2021/10/09 05:35:48;;;;;;;7.65;1.92;;;17.50;90.10;;;;;;5039661;28;20079;-73
2021/10/09 05:38:15;;;;;;;9.63;3.17;;;17.50;90.10;;;;;;5039072;28;20016;-72
2021/10/09 05:40:41;;;;;;;6.50;2.22;;;17.50;90.30;;;;;;5036026;28;20017;-72
2021/10/09 05:43:08;;;;;;;9.93;2.08;;;17.50;90.60;;;;;;5041174;28;20013;-71
2021/10/09 05:45:34;;;;;;;12.30;3.30;;;17.50;90.40;;;;;;5039176;28;20030;-71
2021/10/09 05:48:02;;;;;;;7.93;2.45;;;17.50;90.40;;;;;;5040161;28;20094;-71
2021/10/09 05:50:34;;;;;;;12.30;2.08;;;17.50;90.70;;;;;;5040731;28;20017;-73
2021/10/09 05:56:02;;;;;;;3.20;2.17;;;17.50;91.10;;;;;;5032704;28;20037;-72
2021/10/09 06:25:49;;;;;;;7.60;3.25;;;17.70;92.20;;;;;;5041422;28;20048;-73
2021/10/09 06:44:44;;;;;;;5.53;2.20;;;17.70;92.90;;;;;;5044821;28;20040;-71
2021/10/09 07:00:30;;;;;;;7.15;1.70;;;17.70;93.10;;;;;;5043031;28;20114;-74
2021/10/09 07:02:56;;;;;;;7.95;2.13;;;17.70;93.00;;;;;;5043292;28;20034;-70
2021/10/09 07:05:23;;;;;;;8.70;2.67;;;17.70;93.10;;;;;;5042300;28;20040;-74
2021/10/09 07:07:52;;;;;;;14.80;2.45;;;17.80;93.20;;;;;;5037979;28;20064;-73
2021/10/09 07:10:19;;;;;;;8.55;2.15;;;17.90;93.40;;;;;;5043751;28;20020;-73
2021/10/09 07:12:45;;;;;;;6.93;2.38;;;17.90;93.50;;;;;;5041599;28;20014;-70
2021/10/09 07:15:14;;;;;;;7.45;2.28;;;17.90;93.40;;;;;;5044573;28;20029;-71
2021/10/09 07:17:42;;;;;;;10.13;2.53;;;18.00;93.10;;;;;;5042244;28;20067;-71
2021/10/09 07:20:09;;;;;;;6.55;1.77;;;18.00;92.90;;;;;;5039683;28;20357;-74
2021/10/09 07:22:36;;;;;;;6.22;1.88;;;18.00;92.60;;;;;;5040547;28;20035;-71
2021/10/09 07:25:03;;;;;;;9.65;2.17;;;18.10;92.30;;;;;;5041721;28;20055;-72
2021/10/09 07:27:31;;;;;;;4.53;2.10;;;18.10;92.00;;;;;;5038254;28;20469;-74
2021/10/09 07:29:58;;;;;;;6.20;1.73;;;18.10;91.70;;;;;;5041159;28;20052;-73
2021/10/09 07:32:26;;;;;;;7.60;1.40;;;18.10;91.70;;;;;;5040260;28;20022;-75
2021/10/09 07:34:52;;;;;;;7.20;3.00;;;18.10;91.50;;;;;;5039205;28;20075;-75
2021/10/09 07:37:19;;;;;;;5.63;2.00;;;18.20;91.30;;;;;;5043541;28;20079;-71
2021/10/09 07:39:45;;;;;;;9.65;2.25;;;18.20;91.50;;;;;;5042498;28;20005;-73
2021/10/09 07:42:12;;;;;;;7.78;2.95;;;18.20;91.30;;;;;;5045957;28;20072;-73
2021/10/09 07:44:38;;;;;;;5.63;1.45;;;18.30;91.00;;;;;;5042763;28;20461;-75
2021/10/09 07:47:06;;;;;;;5.13;1.33;;;18.30;90.90;;;;;;5047927;28;20121;-74
2021/10/09 07:49:33;;;;;;;7.82;2.17;;;18.40;91.00;;;;;;5042546;28;20044;-75
2021/10/09 07:51:59;;;;;;;7.35;1.65;;;18.50;90.60;;;;;;5042426;28;20810;-73
2021/10/09 07:54:26;;;;;;;3.80;1.75;;;18.50;90.40;;;;;;5043573;28;20022;-75
2021/10/09 07:56:52;;;;;;;9.07;1.70;;;18.50;89.80;;;;;;5045596;28;20075;-74
2021/10/09 07:59:19;;;;;;;7.35;2.03;;;18.60;89.40;;;;;;5049914;28;20060;-75
2021/10/09 08:01:45;;;;;;;6.13;2.05;;;18.60;89.50;;;;;;5041733;28;20020;-76
2021/10/09 08:04:15;;;;;;;8.57;1.95;;;18.70;89.50;;;;;;5045986;28;20660;-76
2021/10/09 08:06:41;;;;;;;7.00;1.85;;;18.80;89.70;;;;;;5042884;28;20032;-75
2021/10/09 08:09:08;;;;;;;4.00;1.60;;;18.90;89.50;;;;;;5048025;28;20043;-76
2021/10/09 08:11:35;;;;;;;8.43;1.73;;;19.00;89.10;;;;;;5049776;28;20033;-76
2021/10/09 08:14:02;;;;;;;6.68;1.65;;;19.10;88.50;;;;;;5041983;28;20021;-76
2021/10/09 08:16:29;;;;;;;5.97;1.92;;;19.20;88.40;;;;;;5043755;28;20471;-75
2021/10/09 08:18:57;;;;;;;8.18;1.83;;;19.30;88.20;;;;;;5047501;28;20021;-73
2021/10/09 08:21:26;;;;;;;9.90;2.00;;;19.40;87.30;;;;;;5044530;28;20039;-77
2021/10/09 08:38:45;;;;;;;4.85;1.88;;;19.90;84.50;;;;;;5041502;28;20110;-75
2021/10/09 08:40:06;;;;;;;7.85;1.77;;;20.10;84.20;;;;;;5041607;28;20384;-76
2021/10/09 08:42:33;;;;;;;7.57;1.98;;;20.10;83.90;;;;;;5047206;28;20097;-73
2021/10/09 08:45:00;;;;;;;13.23;2.38;;;20.20;83.50;;;;;;5045335;28;20017;-71
2021/10/09 08:47:26;;;;;;;6.90;2.33;;;20.20;83.00;;;;;;5047957;28;20054;-76
2021/10/09 08:49:53;;;;;;;7.32;2.15;;;20.30;83.00;;;;;;5044259;28;20358;-74
2021/10/09 08:52:21;;;;;;;5.88;1.67;;;20.30;82.50;;;;;;5041196;28;20033;-72
2021/10/09 08:54:48;;;;;;;10.02;2.30;;;20.40;82.40;;;;;;5045845;28;20017;-72
2021/10/09 08:57:21;;;;;;;5.53;1.73;;;20.50;82.10;;;;;;5043258;28;20096;-75
2021/10/09 08:59:57;;;;;;;9.52;2.00;;;20.50;81.40;;;;;;5046121;28;20028;-75
2021/10/09 09:02:31;;;;;;;6.57;2.33;;;20.60;80.80;;;;;;5045989;28;20524;-76
2021/10/09 09:36:10;;;;;;;7.25;1.80;;;21.70;75.00;;;;;;5043609;28;20040;-75
2021/10/09 09:41:24;;;;;;;5.80;1.90;;;21.90;75.00;;;;;;5042811;28;20034;-76
2021/10/09 09:43:55;;;;;;;16.10;3.22;;;22.00;74.80;;;;;;5044373;28;20051;-75
2021/10/09 09:46:23;;;;;;;9.25;2.17;;;22.10;74.70;;;;;;5044600;28;20036;-75
2021/10/09 09:48:51;;;;;;;8.68;2.47;;;22.10;73.30;;;;;;5045416;28;20090;-75
2021/10/09 09:51:20;;;;;;;7.55;2.08;;;22.10;72.50;;;;;;5042668;28;20048;-75
2021/10/09 09:53:48;;;;;;;11.35;2.83;;;22.10;72.90;;;;;;5044629;28;20013;-75
2021/10/09 09:56:16;;;;;;;7.80;2.45;;;22.10;73.60;;;;;;5047678;28;20027;-74
2021/10/09 09:58:54;;;;;;;5.63;2.33;;;22.00;73.20;;;;;;5038483;28;20679;-73
2021/10/09 10:01:23;;;;;;;8.80;1.95;;;22.10;72.90;;;;;;5042423;28;20103;-71
2021/10/09 10:03:50;;;;;;;7.63;1.98;;;22.10;73.00;;;;;;5042925;28;20101;-72
2021/10/09 10:06:19;;;;;;;12.75;2.78;;;22.20;73.00;;;;;;5044833;28;20550;-75
2021/10/09 10:08:46;;;;;;;10.00;2.53;;;22.20;72.70;;;;;;5043371;28;20021;-72
2021/10/09 10:11:17;;;;;;;11.43;4.55;;;22.10;72.30;;;;;;5045431;28;20017;-73
2021/10/09 10:13:44;;;;;;;11.55;2.58;;;22.20;72.50;;;;;;5047636;28;20020;-73
2021/10/09 10:16:12;;;;;;;5.80;1.67;;;22.20;72.10;;;;;;5041498;28;20014;-72
2021/10/09 10:18:51;;;;;;;8.73;1.80;;;22.30;71.30;;;;;;5046013;28;20056;-71
2021/10/09 10:21:38;;;;;;;6.35;1.70;;;22.40;70.30;;;;;;5040791;28;20400;-74
2021/10/09 10:24:10;;;;;;;11.40;2.03;;;22.40;70.60;;;;;;5043737;28;20507;-70
2021/10/09 10:26:36;;;;;;;3.90;1.67;;;22.40;69.60;;;;;;5047172;28;20032;-71
2021/10/09 10:29:20;;;;;;;3.70;1.60;;;22.40;69.60;;;;;;5041459;28;20060;-74
2021/10/09 10:32:21;;;;;;;10.65;2.75;;;22.40;69.00;;;;;;5044743;28;20651;-71
2021/10/09 10:34:49;;;;;;;329.67;40.78;;;22.30;69.80;;;;;;5018706;28;20038;-73
2021/10/09 10:37:33;;;;;;;87.28;8.82;;;22.20;69.60;;;;;;5038224;28;20013;-72
2021/10/09 10:40:00;;;;;;;12.52;2.03;;;22.10;68.00;;;;;;5044098;28;20020;-73
2021/10/09 10:42:31;;;;;;;9.40;2.00;;;22.00;68.20;;;;;;5043941;28;20025;-74
2021/10/09 10:48:06;;;;;;;16.55;2.53;;;21.70;69.20;;;;;;5033958;28;20041;-71
2021/10/09 10:51:00;;;;;;;6.35;2.05;;;21.70;69.60;;;;;;5038731;28;20773;-72
2021/10/09 10:54:13;;;;;;;7.55;1.92;;;21.70;71.30;;;;;;5045994;28;20021;-72
2021/10/09 10:56:36;;;;;;;10.45;2.10;;;21.90;72.40;;;;;;5043398;28;20038;-72
2021/10/09 10:59:29;;;;;;;12.40;2.22;;;22.10;71.70;;;;;;5042218;28;20053;-71
2021/10/09 11:02:22;;;;;;;4.25;1.50;;;22.30;71.30;;;;;;5044195;28;20017;-71
2021/10/09 11:05:00;;;;;;;10.90;2.33;;;22.50;69.70;;;;;;5045705;28;20467;-71
2021/10/09 11:07:28;;;;;;;7.85;2.33;;;22.70;70.00;;;;;;5040357;28;20020;-72
2021/10/09 11:10:05;;;;;;;11.82;2.03;;;22.90;69.80;;;;;;5042425;28;20030;-72
2021/10/09 11:12:36;;;;;;;5.80;3.17;;;23.10;69.00;;;;;;5037374;28;20025;-74
2021/10/09 11:15:20;;;;;;;7.72;1.67;;;23.20;67.60;;;;;;5040642;28;20022;-71
2021/10/09 11:17:49;;;;;;;11.50;2.13;;;23.30;67.00;;;;;;5042767;28;20025;-70
2021/10/09 11:20:27;;;;;;;10.85;2.20;;;23.40;66.50;;;;;;5045936;28;20107;-76
2021/10/09 11:22:55;;;;;;;12.02;2.90;;;23.40;65.80;;;;;;5042049;28;20013;-73
2021/10/09 11:25:44;;;;;;;9.00;2.95;;;23.50;66.50;;;;;;5037748;28;20029;-76
2021/10/09 11:28:40;;;;;;;5.45;1.88;;;23.50;65.90;;;;;;5046123;28;20024;-73
2021/10/09 11:31:07;;;;;;;8.70;2.90;;;23.60;66.10;;;;;;5039768;28;20065;-74
2021/10/09 11:33:35;;;;;;;13.60;2.38;;;23.70;66.00;;;;;;5039412;28;20029;-72
2021/10/09 11:36:05;;;;;;;20.52;5.25;;;23.80;65.80;;;;;;5038386;28;20036;-71
2021/10/09 11:38:33;;;;;;;9.70;2.83;;;23.90;65.10;;;;;;5037249;28;20071;-75
2021/10/09 11:41:08;;;;;;;9.02;1.85;;;23.90;65.30;;;;;;5040684;28;20013;-74
2021/10/09 11:43:52;;;;;;;12.52;3.03;;;24.00;64.10;;;;;;5043726;28;20025;-73
2021/10/09 11:55:26;;;;;;;16.13;6.70;;;24.20;63.20;;;;;;5031306;28;20403;-74
2021/10/09 11:57:53;;;;;;;10.43;3.15;;;24.20;63.10;;;;;;5040781;28;20021;-74
2021/10/09 12:00:29;;;;;;;21.65;2.47;;;24.30;63.20;;;;;;5042436;28;20033;-74
2021/10/09 12:02:56;;;;;;;4.68;1.92;;;24.40;62.90;;;;;;5037217;28;20084;-74
2021/10/09 12:05:23;;;;;;;7.60;2.17;;;24.40;62.00;;;;;;5042241;28;20041;-75
2021/10/09 14:22:24;;;;;;;4.22;1.85;;;24.20;49.00;;;;;;5130809;27;20798;-76
2021/10/09 14:24:51;;;;;;;5.88;1.83;;;24.30;48.50;;;;;;5128214;28;20368;-76
2021/10/09 14:27:17;;;;;;;6.20;1.60;;;24.20;48.50;;;;;;5128353;27;20505;-76
2021/10/09 14:29:44;;;;;;;6.65;1.70;;;24.20;48.60;;;;;;5132575;27;20011;-77
2021/10/09 14:32:11;;;;;;;5.18;1.70;;;24.20;48.40;;;;;;5128795;27;20536;-77
2021/10/09 14:34:37;;;;;;;5.25;1.60;;;24.30;48.20;;;;;;5130745;27;20070;-77
2021/10/09 14:37:04;;;;;;;4.10;1.42;;;24.30;47.80;;;;;;5130710;27;20068;-77
2021/10/09 14:39:30;;;;;;;2.47;1.67;;;24.20;47.60;;;;;;5133147;27;20520;-77
2021/10/09 14:41:57;;;;;;;7.25;1.83;;;24.20;47.60;;;;;;5129414;27;20011;-77
2021/10/09 14:44:24;;;;;;;6.30;2.33;;;24.20;47.80;;;;;;5128541;27;20011;-76
2021/10/09 14:49:44;;;;;;;8.80;2.20;;;24.10;47.40;;;;;;5125693;27;20018;-77
2021/10/09 15:16:08;;;;;;;9.23;2.55;;;23.90;43.30;;;;;;5126358;27;20084;-77
2021/10/09 15:16:37;;;;;;;6.30;1.73;;;23.70;44.50;;;;;;5121743;28;20034;-76
2021/10/09 15:19:04;;;;;;;9.02;2.20;;;23.70;45.40;;;;;;5134884;27;20450;-78
2021/10/09 15:21:30;;;;;;;4.30;2.00;;;23.70;45.90;;;;;;5123580;27;20047;-78
2021/10/09 15:23:57;;;;;;;8.95;3.58;;;23.70;47.00;;;;;;5098083;27;20119;-77
2021/10/09 15:26:23;;;;;;;6.43;3.05;;;23.70;47.80;;;;;;5113865;27;20012;-77
2021/10/09 15:28:50;;;;;;;8.48;2.67;;;23.60;47.50;;;;;;5097330;27;20065;-77
2021/10/09 15:31:16;;;;;;;11.38;7.60;;;23.50;48.10;;;;;;5112345;28;20035;-78
2021/10/09 15:33:43;;;;;;;11.50;4.90;;;23.50;48.40;;;;;;5115475;27;20500;-77
2021/10/09 15:36:10;;;;;;;3.72;2.60;;;23.40;48.90;;;;;;5113928;27;20015;-77
2021/10/09 15:38:37;;;;;;;5.68;2.70;;;23.30;49.30;;;;;;5115159;27;20023;-77
2021/10/09 15:41:03;;;;;;;5.32;2.70;;;23.20;49.10;;;;;;5114120;27;20012;-77
2021/10/09 15:43:30;;;;;;;4.95;2.60;;;23.20;50.00;;;;;;5116597;27;20461;-77
2021/10/09 15:45:56;;;;;;;6.53;2.60;;;23.10;50.30;;;;;;5116606;27;20023;-77
2021/10/09 15:48:23;;;;;;;4.22;2.17;;;23.10;50.60;;;;;;5113926;27;20012;-77
2021/10/09 15:50:49;;;;;;;7.82;2.70;;;23.00;51.10;;;;;;5113234;27;20039;-77
2021/10/09 15:53:17;;;;;;;6.63;2.20;;;23.00;51.30;;;;;;5114557;27;20012;-78
2021/10/09 15:55:44;;;;;;;6.82;2.47;;;22.90;51.20;;;;;;5114358;27;20174;-77
2021/10/09 15:58:13;;;;;;;6.68;2.83;;;22.80;51.70;;;;;;5111537;28;20018;-77
2021/10/09 16:00:40;;;;;;;6.80;3.28;;;22.80;51.60;;;;;;5116554;27;20026;-78
2021/10/09 16:03:06;;;;;;;11.48;3.38;;;22.70;51.50;;;;;;5113396;27;20027;-78
2021/10/09 16:05:33;;;;;;;10.10;6.07;;;22.70;51.50;;;;;;5109214;27;20099;-77
2021/10/09 16:07:59;;;;;;;7.82;2.65;;;22.70;51.80;;;;;;5112082;27;20026;-79
2021/10/09 16:10:26;;;;;;;6.57;2.53;;;22.60;52.30;;;;;;5112672;27;20031;-74
2021/10/09 16:12:52;;;;;;;5.38;2.60;;;22.50;52.20;;;;;;5114315;27;20024;-71
2021/10/09 16:15:19;;;;;;;5.22;3.17;;;22.50;53.20;;;;;;5113976;27;20022;-75
2021/10/09 16:17:45;;;;;;;18.75;11.32;;;22.40;52.90;;;;;;5111275;27;20015;-75
2021/10/09 16:20:12;;;;;;;14.65;8.20;;;22.40;52.90;;;;;;5110480;28;20867;-68
2021/10/09 16:22:38;;;;;;;9.73;4.18;;;22.30;53.20;;;;;;5112968;27;20062;-78
2021/10/09 16:25:05;;;;;;;7.82;3.80;;;22.20;53.20;;;;;;5110156;27;20061;-76
2021/10/09 16:27:32;;;;;;;7.13;2.65;;;22.10;52.80;;;;;;5111456;27;20024;-70
2021/10/09 16:29:58;;;;;;;5.57;2.63;;;22.10;53.40;;;;;;5113939;27;20485;-74
2021/10/09 16:32:25;;;;;;;7.85;1.77;;;22.10;53.70;;;;;;5113426;27;20031;-72
2021/10/09 16:34:52;;;;;;;7.47;3.45;;;22.00;54.50;;;;;;5112737;27;20084;-73
2021/10/09 16:37:18;;;;;;;8.85;2.53;;;21.90;55.00;;;;;;5117438;27;20102;-77
2021/10/09 16:39:45;;;;;;;8.40;2.50;;;21.80;55.70;;;;;;5113095;27;20019;-75
2021/10/09 16:42:11;;;;;;;5.40;2.80;;;21.80;55.80;;;;;;5112754;27;20588;-70
2021/10/09 16:44:38;;;;;;;6.72;2.78;;;21.60;56.10;;;;;;5114200;27;20080;-77
2021/10/09 16:47:05;;;;;;;7.75;2.63;;;21.60;56.50;;;;;;5116353;27;20020;-76
2021/10/09 16:49:31;;;;;;;9.85;3.10;;;21.50;56.70;;;;;;5114049;27;20155;-75
2021/10/09 16:51:58;;;;;;;7.20;3.58;;;21.50;57.10;;;;;;5111628;27;20023;-74
2021/10/09 16:54:24;;;;;;;9.45;4.50;;;21.50;57.30;;;;;;5112555;27;20023;-77
2021/10/09 16:56:51;;;;;;;8.77;5.28;;;21.40;57.60;;;;;;5114272;27;20358;-74
2021/10/09 16:59:18;;;;;;;12.43;7.78;;;21.40;57.80;;;;;;5112164;27;20041;-77
2021/10/09 17:01:44;;;;;;;18.55;11.05;;;21.30;58.10;;;;;;5111072;28;20007;-78
2021/10/09 17:04:10;;;;;;;14.80;7.30;;;21.30;58.40;;;;;;5118174;27;20012;-73
2021/10/09 17:06:38;;;;;;;11.07;4.35;;;21.20;58.80;;;;;;5115755;27;20076;-74
2021/10/09 17:09:05;;;;;;;16.48;8.07;;;21.10;59.00;;;;;;5113635;27;20026;-71
2021/10/09 17:11:31;;;;;;;13.02;6.40;;;21.10;59.30;;;;;;5110722;28;20179;-71
2021/10/09 17:13:59;;;;;;;9.88;5.18;;;21.00;59.50;;;;;;5109257;28;20019;-77
2021/10/09 17:16:28;;;;;;;11.43;6.05;;;21.00;59.60;;;;;;5111729;27;20023;-71
2021/10/09 17:19:02;;;;;;;10.13;5.10;;;21.00;59.90;;;;;;5114313;27;20494;-71
2021/10/09 17:21:29;;;;;;;14.18;5.90;;;20.90;60.10;;;;;;5110464;27;20090;-75
2021/10/09 17:23:55;;;;;;;7.95;5.68;;;20.90;60.40;;;;;;5112289;27;20106;-68
2021/10/09 17:26:22;;;;;;;17.33;5.10;;;20.90;60.10;;;;;;5110610;27;20639;-85
2021/10/09 17:28:48;;;;;;;13.45;4.63;;;20.90;59.90;;;;;;5111526;27;20032;-69
2021/10/09 17:31:15;;;;;;;7.25;3.95;;;20.80;60.10;;;;;;5108409;27;20032;-75
2021/10/09 17:33:41;;;;;;;8.25;4.65;;;20.80;60.00;;;;;;5109363;27;20462;-70
2021/10/09 17:36:08;;;;;;;10.45;4.13;;;20.80;60.00;;;;;;5110868;27;20031;-74
2021/10/09 17:38:34;;;;;;;12.77;4.90;;;20.70;60.30;;;;;;5090799;28;20027;-75
2021/10/09 17:41:01;;;;;;;23.27;14.13;;;20.70;60.40;;;;;;5115452;27;20051;-72